createdAt,value
2019-02-18T00:00:13.469Z,26.3
2019-02-18T00:01:03.218Z,26.1
2019-02-18T00:01:52.551Z,26.1
2019-02-18T00:02:43.083Z,26
2019-02-18T00:03:34.057Z,25.6
2019-02-18T00:04:22.955Z,26.2
2019-02-18T00:05:13.298Z,27
2019-02-18T00:06:03.923Z,27.7
2019-02-18T00:06:53.736Z,28.2
2019-02-18T00:07:43.456Z,28.6
2019-02-18T00:08:33.508Z,29
2019-02-18T00:09:23.286Z,29.4
2019-02-18T00:10:13.719Z,29.7
2019-02-18T00:11:03.755Z,30
2019-02-18T00:11:53.782Z,30.3
2019-02-18T00:12:44.121Z,29.6
2019-02-18T00:13:34.394Z,29.6
2019-02-18T00:14:23.586Z,29.4
2019-02-18T00:15:14.591Z,29.1
2019-02-18T00:16:03.763Z,28.8
2019-02-18T00:16:53.927Z,28.6
2019-02-18T00:17:44.400Z,28.5
2019-02-18T00:18:35.065Z,28.4
2019-02-18T00:19:24.255Z,28.3
2019-02-18T00:20:14.048Z,28.3
2019-02-18T00:21:05.250Z,28.2
2019-02-18T00:21:54.697Z,27.7
2019-02-18T00:22:45.017Z,27.3
2019-02-18T00:23:35.120Z,27
2019-02-18T00:24:25.200Z,26.8
2019-02-18T00:25:14.962Z,26.7
2019-02-18T00:26:04.270Z,26.6
2019-02-18T00:26:54.764Z,26.4
2019-02-18T00:27:45.449Z,26.4
2019-02-18T00:28:36.752Z,26.3
2019-02-18T00:29:24.210Z,26
2019-02-18T00:30:13.987Z,26.3
2019-02-18T00:31:04.297Z,27.2
2019-02-18T00:31:55.974Z,27.9
2019-02-18T00:32:46.017Z,28.4
2019-02-18T00:33:35.777Z,28.9
2019-02-18T00:34:25.826Z,29.3
2019-02-18T00:35:16.004Z,29.6
2019-02-18T00:36:06.586Z,29.9
2019-02-18T00:36:55.223Z,30.3
2019-02-18T00:37:45.539Z,30.5
2019-02-18T00:38:35.854Z,29.9
2019-02-18T00:39:25.691Z,29.8
2019-02-18T00:40:16.525Z,29.8
2019-02-18T00:41:05.783Z,29.4
2019-02-18T00:41:57.099Z,29.2
2019-02-18T00:42:46.141Z,28.9
2019-02-18T00:43:36.496Z,28.8
2019-02-18T00:44:26.110Z,28.7
2019-02-18T00:45:16.673Z,28.6
2019-02-18T00:46:05.866Z,28.5
2019-02-18T00:46:56.003Z,28.4
2019-02-18T00:47:48.405Z,28
2019-02-18T00:48:36.276Z,27.4
2019-02-18T00:49:26.084Z,27.1
2019-02-18T00:50:15.833Z,26.9
2019-02-18T00:51:06.138Z,26.7
2019-02-18T00:51:56.520Z,26.6
2019-02-18T00:52:46.616Z,26.5
2019-02-18T00:53:37.495Z,26.4
2019-02-18T00:54:27.505Z,26.3
2019-02-18T00:55:16.765Z,26
2019-02-18T00:56:06.293Z,26.7
2019-02-18T00:56:56.813Z,27.4
2019-02-18T00:57:46.985Z,28.1
2019-02-18T00:58:37.290Z,28.6
2019-02-18T00:59:27.377Z,28.9
2019-02-18T01:00:17.247Z,29.3
2019-02-18T01:01:07.140Z,29.6
2019-02-18T01:01:57.505Z,29.9
2019-02-18T01:02:47.250Z,30.2
2019-02-18T01:03:37.581Z,30.4
2019-02-18T01:04:28.230Z,29.9
2019-02-18T01:05:17.817Z,29.8
2019-02-18T01:06:07.235Z,29.7
2019-02-18T01:06:58.130Z,29.4
2019-02-18T01:07:47.905Z,29.2
2019-02-18T01:08:37.997Z,28.9
2019-02-18T01:09:28.592Z,28.8
2019-02-18T01:10:18.377Z,28.7
2019-02-18T01:11:07.644Z,28.6
2019-02-18T01:11:58.157Z,28.5
2019-02-18T01:12:47.947Z,28.4
2019-02-18T01:13:38.256Z,28.1
2019-02-18T01:14:28.604Z,27.6
2019-02-18T01:15:18.499Z,27.2
2019-02-18T01:16:08.794Z,26.9
2019-02-18T01:16:57.966Z,26.7
2019-02-18T01:17:48.581Z,26.6
2019-02-18T01:18:38.922Z,26.5
2019-02-18T01:19:28.969Z,26.4
2019-02-18T01:20:18.634Z,26.3
2019-02-18T01:21:08.847Z,26.1
2019-02-18T01:21:58.546Z,26.9
2019-02-18T01:22:49.914Z,27.6
2019-02-18T01:23:39.585Z,28.2
2019-02-18T01:24:28.251Z,28.6
2019-02-18T01:25:18.703Z,28.9
2019-02-18T01:26:09.451Z,29.3
2019-02-18T01:26:58.911Z,29.6
2019-02-18T01:27:49.358Z,29.8
2019-02-18T01:28:39.368Z,30.1
2019-02-18T01:29:29.091Z,30.3
2019-02-18T01:30:19.235Z,30.1
2019-02-18T01:31:09.046Z,29.1
2019-02-18T01:31:59.590Z,27.6
2019-02-18T01:32:50.180Z,26.3
2019-02-18T01:33:39.070Z,25
2019-02-18T01:34:30.295Z,24.9
2019-02-18T01:35:19.548Z,24.9
2019-02-18T01:36:09.635Z,26.1
2019-02-18T01:36:59.606Z,27.1
2019-02-18T01:38:40.099Z,28.5
2019-02-18T01:39:30.399Z,29
2019-02-18T01:40:20.262Z,29.4
2019-02-18T01:41:10.780Z,29.8
2019-02-18T01:41:59.942Z,30.1
2019-02-18T01:42:50.850Z,30.3
2019-02-18T01:43:39.525Z,29.7
2019-02-18T01:44:30.744Z,29.7
2019-02-18T01:45:19.352Z,29.6
2019-02-18T01:46:10.830Z,29.3
2019-02-18T01:47:00.902Z,29
2019-02-18T01:47:50.642Z,28.8
2019-02-18T01:48:41.001Z,28.7
2019-02-18T01:49:29.952Z,28.6
2019-02-18T01:50:21.284Z,28.4
2019-02-18T01:51:10.869Z,28.3
2019-02-18T01:52:00.109Z,28.3
2019-02-18T01:52:50.766Z,28.1
2019-02-18T01:53:40.479Z,27.6
2019-02-18T01:54:29.994Z,27.1
2019-02-18T01:55:21.256Z,26.9
2019-02-18T01:56:11.772Z,26.7
2019-02-18T01:57:01.286Z,26.5
2019-02-18T01:57:51.866Z,26.4
2019-02-18T01:58:40.641Z,26.3
2019-02-18T01:59:31.139Z,26.1
2019-02-18T02:00:20.830Z,26.1
2019-02-18T02:01:11.369Z,26.9
2019-02-18T02:02:00.844Z,27.7
2019-02-18T02:02:51.598Z,28.2
2019-02-18T02:03:42.393Z,28.7
2019-02-18T02:04:31.063Z,29.1
2019-02-18T02:05:22.065Z,29.4
2019-02-18T02:06:11.091Z,29.6
2019-02-18T02:07:02.314Z,29.9
2019-02-18T02:08:03.088Z,30.2
2019-02-18T02:08:41.626Z,30.4
2019-02-18T02:09:31.363Z,30.1
2019-02-18T02:10:21.769Z,29.7
2019-02-18T02:11:11.493Z,29.7
2019-02-18T02:12:01.612Z,29.5
2019-02-18T02:12:52.933Z,29.2
2019-02-18T02:13:42.995Z,29
2019-02-18T02:14:31.783Z,28.8
2019-02-18T02:15:22.885Z,28.7
2019-02-18T02:16:12.858Z,28.6
2019-02-18T02:17:02.155Z,28.5
2019-02-18T02:17:52.435Z,28.4
2019-02-18T02:18:43.100Z,28.3
2019-02-18T02:19:32.562Z,27.8
2019-02-18T02:20:22.658Z,27.3
2019-02-18T02:21:12.238Z,26.9
2019-02-18T02:22:02.998Z,26.8
2019-02-18T02:22:53.066Z,26.6
2019-02-18T02:23:43.389Z,26.5
2019-02-18T02:24:32.922Z,26.4
2019-02-18T02:25:23.289Z,26.1
2019-02-18T02:26:13.869Z,26.1
2019-02-18T02:27:03.082Z,27
2019-02-18T02:27:53.430Z,27.7
2019-02-18T02:28:43.527Z,28.2
2019-02-18T02:29:33.040Z,28.6
2019-02-18T02:30:24.102Z,28.9
2019-02-18T02:31:14.098Z,29.3
2019-02-18T02:32:04.190Z,29.5
2019-02-18T02:32:53.848Z,29.8
2019-02-18T02:33:43.877Z,30
2019-02-18T02:34:33.979Z,30.3
2019-02-18T02:35:24.162Z,30.5
2019-02-18T02:36:14.333Z,29.8
2019-02-18T02:37:04.309Z,29.7
2019-02-18T02:37:53.992Z,29.6
2019-02-18T02:38:43.444Z,29.3
2019-02-18T02:39:34.928Z,29.1
2019-02-18T02:40:23.797Z,28.9
2019-02-18T02:41:14.416Z,28.8
2019-02-18T02:42:03.923Z,28.7
2019-02-18T02:42:54.868Z,28.6
2019-02-18T02:43:44.792Z,28.5
2019-02-18T02:44:35.234Z,28.4
2019-02-18T02:45:25.320Z,28.4
2019-02-18T02:46:15.368Z,28
2019-02-18T02:47:04.603Z,27.4
2019-02-18T02:47:54.801Z,27.1
2019-02-18T02:48:45.478Z,26.8
2019-02-18T02:49:35.397Z,26.6
2019-02-18T02:50:25.613Z,26.5
2019-02-18T02:51:16.028Z,26.4
2019-02-18T02:52:05.403Z,26.1
2019-02-18T02:52:54.763Z,26.3
2019-02-18T02:53:45.721Z,27
2019-02-18T02:54:34.905Z,27.7
2019-02-18T02:55:25.073Z,28.2
2019-02-18T02:56:15.245Z,28.6
2019-02-18T02:57:04.638Z,28.9
2019-02-18T02:57:55.023Z,29.2
2019-02-18T02:58:45.055Z,29.4
2019-02-18T02:59:34.620Z,29.7
2019-02-18T03:00:25.075Z,29.9
2019-02-18T03:01:16.659Z,30.1
2019-02-18T03:02:05.094Z,30.4
2019-02-18T03:02:55.701Z,30.3
2019-02-18T03:03:45.482Z,29.7
2019-02-18T03:04:34.774Z,29.7
2019-02-18T03:08:21.494Z,28.9
2019-02-18T03:08:57.602Z,28.7
2019-02-18T03:09:48.343Z,28.6
2019-02-18T03:10:37.883Z,28.6
2019-02-18T03:11:27.915Z,28.5
2019-02-18T03:12:18.007Z,28.4
2019-02-18T03:13:08.042Z,28.1
2019-02-18T03:13:58.372Z,27.5
2019-02-18T03:14:48.172Z,27.1
2019-02-18T03:15:38.545Z,26.9
2019-02-18T03:16:27.720Z,26.7
2019-02-18T03:17:17.912Z,26.5
2019-02-18T03:18:09.269Z,26.4
2019-02-18T03:18:58.739Z,26.1
2019-02-18T03:19:49.253Z,26.3
2019-02-18T03:20:39.087Z,27.1
2019-02-18T03:21:28.908Z,27.7
2019-02-18T03:22:18.568Z,28.2
2019-02-18T03:23:09.016Z,28.6
2019-02-18T03:23:59.706Z,28.9
2019-02-18T03:24:48.331Z,29.2
2019-02-18T03:25:39.367Z,29.4
2019-02-18T03:26:29.454Z,29.6
2019-02-18T03:27:19.323Z,29.9
2019-02-18T03:28:08.729Z,30.1
2019-02-18T03:29:00.136Z,30.3
2019-02-18T03:29:50.552Z,30.4
2019-02-18T03:30:39.995Z,29.7
2019-02-18T03:31:30.322Z,29.7
2019-02-18T03:32:19.820Z,29.6
2019-02-18T03:33:10.997Z,29.3
2019-02-18T03:34:00.687Z,29.1
2019-02-18T03:34:49.547Z,28.9
2019-02-18T03:35:40.935Z,28.8
2019-02-18T03:36:30.410Z,28.7
2019-02-18T03:37:20.248Z,28.6
2019-02-18T03:38:10.921Z,28.6
2019-02-18T03:39:00.901Z,28.5
2019-02-18T03:39:50.985Z,28.4
2019-02-18T03:40:40.993Z,27.8
2019-02-18T03:41:31.281Z,27.3
2019-02-18T03:42:20.560Z,26.9
2019-02-18T03:43:10.559Z,26.7
2019-02-18T03:44:00.945Z,26.6
2019-02-18T03:44:50.994Z,26.4
2019-02-18T03:45:40.540Z,26.3
2019-02-18T03:46:31.480Z,26
2019-02-18T03:47:19.865Z,26.8
2019-02-18T03:48:11.312Z,27.4
2019-02-18T03:49:01.010Z,28
2019-02-18T03:49:51.440Z,28.4
2019-02-18T03:50:41.332Z,28.7
2019-02-18T03:51:31.479Z,29
2019-02-18T03:52:21.783Z,29.3
2019-02-18T03:53:11.612Z,29.4
2019-02-18T03:54:01.599Z,29.7
2019-02-18T03:54:51.709Z,29.9
2019-02-18T03:55:41.536Z,30.1
2019-02-18T03:56:31.549Z,30.3
2019-02-18T03:57:21.605Z,30.4
2019-02-18T03:58:11.652Z,29.8
2019-02-18T03:59:01.516Z,29.6
2019-02-18T03:59:51.814Z,29.6
2019-02-18T04:00:41.542Z,29.3
2019-02-18T04:01:32.457Z,29.1
2019-02-18T04:02:21.671Z,29
2019-02-18T04:03:11.724Z,28.9
2019-02-18T04:04:02.122Z,28.8
2019-02-18T04:04:52.663Z,28.6
2019-02-18T04:05:42.188Z,28.6
2019-02-18T04:06:31.530Z,28.5
2019-02-18T04:07:22.845Z,28.1
2019-02-18T04:08:12.575Z,27.5
2019-02-18T04:09:02.974Z,27.1
2019-02-18T04:09:52.433Z,26.9
2019-02-18T04:10:42.565Z,26.7
2019-02-18T04:11:32.992Z,26.5
2019-02-18T04:12:22.347Z,26.4
2019-02-18T04:13:13.845Z,26.2
2019-02-18T04:14:03.385Z,26.2
2019-02-18T04:14:53.686Z,27
2019-02-18T04:15:43.096Z,27.6
2019-02-18T04:16:33.428Z,28.1
2019-02-18T04:17:22.688Z,28.4
2019-02-18T04:18:13.349Z,28.8
2019-02-18T04:19:03.387Z,29.1
2019-02-18T04:19:54.992Z,29.3
2019-02-18T04:20:43.570Z,29.2
2019-02-18T04:21:33.102Z,28.3
2019-02-18T04:22:23.292Z,27.2
2019-02-18T04:23:13.379Z,26.1
2019-02-18T04:24:03.403Z,25.2
2019-02-18T04:24:53.775Z,23.9
2019-02-18T04:25:44.007Z,22.8
2019-02-18T04:26:34.282Z,22.6
2019-02-18T04:27:23.914Z,22.8
2019-02-18T04:28:13.679Z,24
2019-02-18T04:29:03.761Z,25.1
2019-02-18T04:29:54.062Z,26.1
2019-02-18T04:30:43.924Z,26.9
2019-02-18T04:31:34.639Z,27.6
2019-02-18T04:32:24.532Z,28.2
2019-02-18T04:33:14.675Z,28.6
2019-02-18T04:34:04.389Z,28.9
2019-02-18T04:34:54.422Z,29.3
2019-02-18T04:35:44.791Z,29.6
2019-02-18T04:36:35.098Z,29.9
2019-02-18T04:37:24.909Z,30.1
2019-02-18T04:38:14.401Z,30.3
2019-02-18T04:39:04.701Z,30.5
2019-02-18T04:39:54.679Z,29.8
2019-02-18T04:40:44.604Z,29.8
2019-02-18T04:41:35.214Z,29.6
2019-02-18T04:42:25.506Z,29.4
2019-02-18T04:43:15.809Z,29.2
2019-02-18T04:44:05.164Z,29.1
2019-02-18T04:44:54.606Z,28.9
2019-02-18T04:45:45.008Z,28.8
2019-02-18T04:46:36.155Z,28.8
2019-02-18T04:47:25.669Z,28.6
2019-02-18T04:48:15.977Z,28.6
2019-02-18T04:49:06.081Z,28
2019-02-18T04:49:56.268Z,27.4
2019-02-18T04:50:46.123Z,27.1
2019-02-18T04:51:35.627Z,26.8
2019-02-18T04:52:25.681Z,26.6
2019-02-18T04:53:15.705Z,26.5
2019-02-18T04:54:05.784Z,26.4
2019-02-18T04:54:55.843Z,26.1
2019-02-18T04:55:45.298Z,26.9
2019-02-18T04:56:36.290Z,27.6
2019-02-18T04:57:26.643Z,28.1
2019-02-18T04:58:16.378Z,28.5
2019-02-18T04:59:05.889Z,28.9
2019-02-18T04:59:56.486Z,29.2
2019-02-18T05:00:45.470Z,29.4
2019-02-18T05:01:37.167Z,29.6
2019-02-18T05:02:26.654Z,29.9
2019-02-18T05:03:16.700Z,30.1
2019-02-18T05:04:06.370Z,30.3
2019-02-18T05:04:56.872Z,30.5
2019-02-18T05:05:46.879Z,30.4
2019-02-18T05:06:36.745Z,29.8
2019-02-18T05:07:27.267Z,29.8
2019-02-18T05:08:17.302Z,29.6
2019-02-18T05:09:13.126Z,29.3
2019-02-18T05:09:57.167Z,29.2
2019-02-18T05:10:47.788Z,29
2019-02-18T05:11:37.279Z,28.9
2019-02-18T05:12:27.042Z,28.8
2019-02-18T05:13:17.167Z,28.6
2019-02-18T05:14:06.722Z,28.6
2019-02-18T05:14:57.481Z,28.4
2019-02-18T05:15:48.223Z,28.1
2019-02-18T05:16:37.396Z,27.4
2019-02-18T05:17:27.105Z,27.1
2019-02-18T05:18:16.858Z,26.8
2019-02-18T05:19:07.531Z,26.6
2019-02-18T05:19:57.609Z,26.5
2019-02-18T05:20:47.419Z,26.4
2019-02-18T05:21:37.716Z,26
2019-02-18T05:22:27.756Z,26.6
2019-02-18T05:23:18.407Z,27.3
2019-02-18T05:24:57.929Z,28.3
2019-02-18T05:25:47.770Z,28.6
2019-02-18T05:26:37.791Z,28.9
2019-02-18T05:27:40.171Z,29.2
2019-02-18T05:28:18.758Z,29.5
2019-02-18T05:29:08.275Z,29.7
2019-02-18T05:29:58.238Z,29.9
2019-02-18T05:30:47.844Z,30.1
2019-02-18T05:31:39.017Z,30.3
2019-02-18T05:32:28.541Z,30.5
2019-02-18T05:33:19.081Z,29.9
2019-02-18T05:34:08.675Z,29.8
2019-02-18T05:34:58.299Z,29.7
2019-02-18T05:35:48.366Z,29.4
2019-02-18T05:36:39.007Z,29.2
2019-02-18T05:37:28.120Z,29.1
2019-02-18T05:38:18.519Z,28.9
2019-02-18T05:39:20.829Z,28.8
2019-02-18T05:40:01.048Z,28.7
2019-02-18T05:40:49.132Z,28.6
2019-02-18T05:41:38.679Z,28.6
2019-02-18T05:42:29.065Z,28.4
2019-02-18T05:44:08.521Z,27.3
2019-02-18T05:44:59.634Z,26.9
2019-02-18T05:45:49.433Z,26.8
2019-02-18T05:46:38.903Z,26.6
2019-02-18T05:47:29.061Z,26.4
2019-02-18T05:48:19.647Z,26
2019-02-18T05:49:08.830Z,26.3
2019-02-18T05:50:00.461Z,27.1
2019-02-18T05:50:49.481Z,27.6
2019-02-18T05:51:40.043Z,28.1
2019-02-18T05:52:29.635Z,28.4
2019-02-18T05:53:19.204Z,28.8
2019-02-18T05:54:09.958Z,29
2019-02-18T05:55:00.426Z,29.2
2019-02-18T05:55:49.821Z,29.4
2019-02-18T05:56:40.420Z,29.7
2019-02-18T05:57:31.028Z,29.9
2019-02-18T05:58:20.527Z,30.1
2019-02-18T05:59:10.343Z,30.3
2019-02-18T06:00:00.334Z,30.4
2019-02-18T06:00:49.991Z,29.8
2019-02-18T06:01:40.446Z,29.7
2019-02-18T06:02:30.965Z,29.6
2019-02-18T06:03:19.751Z,29.4
2019-02-18T06:06:08.180Z,29
2019-02-18T06:06:59.368Z,28.9
2019-02-18T06:07:49.250Z,28.8
2019-02-18T06:08:37.852Z,28.7
2019-02-18T06:09:37.589Z,28.6
2019-02-18T06:10:23.214Z,27.9
2019-02-18T06:11:08.203Z,27.4
2019-02-18T06:11:58.406Z,27.1
2019-02-18T06:12:48.291Z,26.8
2019-02-18T06:13:38.567Z,26.7
2019-02-18T06:14:29.105Z,26.5
2019-02-18T06:15:18.783Z,26.3
2019-02-18T06:16:09.206Z,26.1
2019-02-18T06:17:02.594Z,26.9
2019-02-18T06:17:50.122Z,27.6
2019-02-18T06:18:40.151Z,28.1
2019-02-18T06:19:29.184Z,28.5
2019-02-18T06:20:18.975Z,28.8
2019-02-18T06:21:09.237Z,29.1
2019-02-18T06:21:59.370Z,29.4
2019-02-18T06:22:50.216Z,29.6
2019-02-18T06:23:54.352Z,29.8
2019-02-18T06:24:29.641Z,30.1
2019-02-18T06:25:34.845Z,30.3
2019-02-18T06:26:10.648Z,30.5
2019-02-18T06:27:00.426Z,30.6
2019-02-18T06:27:52.513Z,30
2019-02-18T06:28:40.365Z,29.8
2019-02-18T06:29:30.694Z,29.8
2019-02-18T06:30:19.632Z,29.5
2019-02-18T06:31:10.839Z,29.3
2019-02-18T06:31:59.735Z,29.2
2019-02-18T06:32:50.744Z,29
2019-02-18T06:33:40.189Z,28.9
2019-02-18T06:34:31.064Z,28.8
2019-02-18T06:35:20.348Z,28.8
2019-02-18T06:36:10.573Z,28.7
2019-02-18T06:37:00.494Z,28.3
2019-02-18T06:37:50.634Z,27.7
2019-02-18T06:38:40.361Z,27.3
2019-02-18T06:39:43.505Z,27
2019-02-18T06:40:20.945Z,26.8
2019-02-18T06:41:10.029Z,26.7
2019-02-18T06:42:00.923Z,26.6
2019-02-18T06:42:50.495Z,26.5
2019-02-18T06:43:41.609Z,26.4
2019-02-18T06:44:30.305Z,26.4
2019-02-18T06:45:21.207Z,26.3
2019-02-18T06:46:10.960Z,26.3
2019-02-18T06:47:02.062Z,26.3
2019-02-18T06:47:50.795Z,26.3
2019-02-18T06:48:41.389Z,26.2
2019-02-18T06:49:31.535Z,26.1
2019-02-18T06:50:21.059Z,26.1
2019-02-18T06:51:11.479Z,26
2019-02-18T06:52:16.578Z,25.9
2019-02-18T06:52:51.101Z,25.9
2019-02-18T06:53:42.032Z,25.9
2019-02-18T06:54:47.027Z,25.9
2019-02-18T06:55:21.595Z,25.8
2019-02-18T06:56:11.611Z,25.8
2019-02-18T06:57:02.592Z,25.7
2019-02-18T06:57:52.319Z,25.7
2019-02-18T06:58:41.261Z,25.7
2019-02-18T06:59:32.137Z,25.6
2019-02-18T07:00:22.637Z,25.6
2019-02-18T07:01:12.281Z,25.5
2019-02-18T07:02:01.572Z,25.5
2019-02-18T07:02:53.367Z,25.4
2019-02-18T07:03:41.609Z,25.4
2019-02-18T07:06:08.151Z,25.3
2019-02-18T07:06:59.049Z,25.3
2019-02-18T07:07:47.499Z,25.2
2019-02-18T07:08:38.233Z,25.1
2019-02-18T07:09:28.154Z,25.1
2019-02-18T07:10:17.083Z,25.1
2019-02-18T07:11:09.409Z,25
2019-02-18T07:11:58.328Z,24.9
2019-02-18T07:12:49.190Z,24.9
2019-02-18T07:13:39.683Z,24.9
2019-02-18T07:14:28.793Z,24.8
2019-02-18T07:15:18.800Z,24.8
2019-02-18T07:16:09.455Z,24.8
2019-02-18T07:16:59.710Z,24.7
2019-02-18T07:17:48.960Z,24.6
2019-02-18T07:18:39.351Z,24.6
2019-02-18T07:20:01.245Z,24.6
2019-02-18T07:20:19.746Z,24.5
2019-02-18T07:21:07.807Z,24.5
2019-02-18T07:21:59.825Z,24.4
2019-02-18T07:22:50.405Z,24.4
2019-02-18T07:23:39.660Z,24.4
2019-02-18T07:24:29.813Z,24.4
2019-02-18T07:25:20.338Z,24.3
2019-02-18T07:26:09.545Z,24.3
2019-02-18T07:26:59.775Z,24.3
2019-02-18T07:27:50.202Z,24.2
2019-02-18T07:28:38.920Z,24.1
2019-02-18T07:29:29.792Z,24.1
2019-02-18T07:30:19.537Z,24.1
2019-02-18T07:31:10.213Z,24.1
2019-02-18T07:32:00.594Z,24
2019-02-18T07:32:50.220Z,24
2019-02-18T07:33:39.530Z,23.9
2019-02-18T07:34:30.883Z,23.9
2019-02-18T07:35:20.810Z,23.9
2019-02-18T07:36:10.895Z,23.8
2019-02-18T07:37:00.933Z,23.8
2019-02-18T07:38:04.565Z,23.8
2019-02-18T07:38:40.194Z,23.7
2019-02-18T07:39:29.691Z,23.7
2019-02-18T07:40:20.442Z,23.7
2019-02-18T07:41:11.114Z,23.6
2019-02-18T07:42:00.349Z,23.6
2019-02-18T07:42:51.291Z,23.6
2019-02-18T07:43:41.024Z,23.6
2019-02-18T07:44:31.109Z,23.5
2019-02-18T07:45:21.429Z,23.4
2019-02-18T07:46:11.154Z,23.4
2019-02-18T07:47:01.539Z,23.4
2019-02-18T07:47:51.040Z,23.4
2019-02-18T07:48:43.794Z,23.3
2019-02-18T07:49:31.196Z,23.3
2019-02-18T07:50:28.272Z,23.3
2019-02-18T07:51:15.021Z,23.3
2019-02-18T07:52:01.610Z,23.3
2019-02-18T07:52:50.841Z,23.2
2019-02-18T07:53:40.978Z,23.1
2019-02-18T07:54:32.084Z,23.1
2019-02-18T07:55:21.832Z,23.1
2019-02-18T07:56:11.983Z,23.1
2019-02-18T07:57:01.375Z,23.1
2019-02-18T07:57:52.035Z,23
2019-02-18T07:58:41.811Z,22.9
2019-02-18T07:59:31.075Z,22.9
2019-02-18T08:00:22.186Z,22.9
2019-02-18T08:01:12.328Z,22.9
2019-02-18T08:02:02.623Z,22.9
2019-02-18T08:02:52.419Z,22.8
2019-02-18T08:03:41.607Z,22.8
2019-02-18T08:04:32.185Z,22.8
2019-02-18T08:05:22.297Z,22.8
2019-02-18T08:06:11.760Z,22.8
2019-02-18T08:07:01.571Z,22.7
2019-02-18T08:07:52.986Z,22.7
2019-02-18T08:08:42.063Z,22.7
2019-02-18T08:09:31.995Z,22.6
2019-02-18T08:10:23.143Z,22.6
2019-02-18T08:11:11.668Z,22.6
2019-02-18T08:12:02.394Z,22.6
2019-02-18T08:12:51.649Z,22.6
2019-02-18T08:13:43.529Z,22.6
2019-02-18T08:14:32.939Z,22.5
2019-02-18T08:15:22.975Z,22.5
2019-02-18T08:16:11.622Z,22.5
2019-02-18T08:17:03.169Z,22.4
2019-02-18T08:17:52.904Z,22.4
2019-02-18T08:18:42.726Z,22.4
2019-02-18T08:19:33.804Z,22.4
2019-02-18T08:20:23.071Z,22.4
2019-02-18T08:21:12.569Z,22.4
2019-02-18T08:22:02.389Z,22.3
2019-02-18T08:22:53.552Z,22.3
2019-02-18T08:23:43.803Z,22.3
2019-02-18T08:24:33.137Z,22.3
2019-02-18T08:25:22.924Z,22.2
2019-02-18T08:26:12.791Z,22.2
2019-02-18T08:27:03.924Z,22.2
2019-02-18T08:27:52.849Z,22.2
2019-02-18T08:28:44.297Z,22.1
2019-02-18T08:29:33.997Z,22.1
2019-02-18T08:30:23.284Z,22.1
2019-02-18T08:31:13.753Z,22.1
2019-02-18T08:32:04.378Z,22.1
2019-02-18T08:32:54.138Z,22.1
2019-02-18T08:33:44.511Z,22
2019-02-18T08:34:34.533Z,22
2019-02-18T08:35:24.106Z,22
2019-02-18T08:36:14.120Z,22
2019-02-18T08:37:04.461Z,21.9
2019-02-18T08:37:55.223Z,21.9
2019-02-18T08:38:44.788Z,21.9
2019-02-18T08:39:35.235Z,21.9
2019-02-18T08:40:30.676Z,21.9
2019-02-18T08:41:13.993Z,21.9
2019-02-18T08:42:04.591Z,21.9
2019-02-18T08:42:54.693Z,21.8
2019-02-18T08:43:44.104Z,21.9
2019-02-18T08:44:35.228Z,21.8
2019-02-18T08:45:25.385Z,21.8
2019-02-18T08:46:15.094Z,21.8
2019-02-18T08:47:04.605Z,21.8
2019-02-18T08:47:54.657Z,21.8
2019-02-18T08:48:45.827Z,21.8
2019-02-18T08:49:35.673Z,21.7
2019-02-18T08:50:25.092Z,21.7
2019-02-18T08:51:15.227Z,21.7
2019-02-18T08:52:04.427Z,21.7
2019-02-18T08:52:54.707Z,21.6
2019-02-18T08:53:47.706Z,21.6
2019-02-18T08:54:34.697Z,21.6
2019-02-18T08:55:25.604Z,21.6
2019-02-18T08:56:16.585Z,21.6
2019-02-18T08:57:04.992Z,21.6
2019-02-18T08:57:56.132Z,21.6
2019-02-18T08:58:46.008Z,21.6
2019-02-18T08:59:36.270Z,21.6
2019-02-18T09:00:26.329Z,21.6
2019-02-18T09:01:16.399Z,21.5
2019-02-18T09:02:06.777Z,21.5
2019-02-18T09:02:57.096Z,21.5
2019-02-18T09:03:46.048Z,21.5
2019-02-18T09:04:36.645Z,21.5
2019-02-18T09:05:27.755Z,21.5
2019-02-18T09:06:16.159Z,21.4
2019-02-18T09:07:07.444Z,21.4
2019-02-18T09:07:56.097Z,21.4
2019-02-18T09:08:46.738Z,21.4
2019-02-18T09:09:36.941Z,21.4
2019-02-18T09:10:38.778Z,21.4
2019-02-18T09:11:17.690Z,21.4
2019-02-18T09:12:07.400Z,21.4
2019-02-18T09:12:56.963Z,21.4
2019-02-18T09:13:47.663Z,21.4
2019-02-18T09:14:36.758Z,21.3
2019-02-18T09:15:27.653Z,21.3
2019-02-18T09:16:17.698Z,21.3
2019-02-18T09:17:06.776Z,21.3
2019-02-18T09:17:57.682Z,21.3
2019-02-18T09:18:47.303Z,21.3
2019-02-18T09:19:37.470Z,21.3
2019-02-18T09:20:30.868Z,21.3
2019-02-18T09:21:16.986Z,21.3
2019-02-18T09:22:08.103Z,21.3
2019-02-18T09:22:57.425Z,21.3
2019-02-18T09:23:48.273Z,21.2
2019-02-18T09:24:37.978Z,21.2
2019-02-18T09:25:28.377Z,21.2
2019-02-18T09:26:17.428Z,21.2
2019-02-18T09:34:37.769Z,21.1
2019-02-18T09:35:28.337Z,21.1
2019-02-18T09:36:18.099Z,21.1
2019-02-18T09:37:08.010Z,21.1
2019-02-18T09:37:57.793Z,21.1
2019-02-18T09:38:48.857Z,21
2019-02-18T09:39:38.769Z,21.1
2019-02-18T09:40:27.626Z,21
2019-02-18T09:41:18.144Z,21
2019-02-18T09:42:09.364Z,21
2019-02-18T09:42:58.079Z,21
2019-02-18T09:43:48.646Z,21
2019-02-18T09:44:38.070Z,21
2019-02-18T09:45:29.052Z,20.9
2019-02-18T09:46:19.294Z,20.9
2019-02-18T09:47:09.053Z,20.9
2019-02-18T09:48:00.816Z,20.9
2019-02-18T09:48:49.198Z,20.9
2019-02-18T09:49:39.834Z,20.9
2019-02-18T09:50:29.789Z,20.9
2019-02-18T09:51:19.969Z,20.9
2019-02-18T09:52:09.554Z,20.9
2019-02-18T09:52:59.231Z,20.9
2019-02-18T09:53:50.359Z,20.9
2019-02-18T09:54:39.391Z,20.9
2019-02-18T09:55:29.359Z,20.9
2019-02-18T09:56:19.758Z,20.9
2019-02-18T09:57:10.530Z,20.9
2019-02-18T09:57:59.818Z,20.8
2019-02-18T09:58:52.616Z,20.8
2019-02-18T09:59:40.978Z,20.8
2019-02-18T10:00:29.788Z,20.8
2019-02-18T10:01:20.328Z,20.8
2019-02-18T10:02:10.611Z,20.8
2019-02-18T10:03:00.366Z,20.8
2019-02-18T10:03:49.641Z,20.8
2019-02-18T10:04:40.848Z,20.8
2019-02-18T10:07:08.582Z,20.8
2019-02-18T10:07:57.807Z,20.8
2019-02-18T10:08:48.453Z,20.8
2019-02-18T10:09:37.366Z,20.8
2019-02-18T10:10:29.148Z,20.8
2019-02-18T10:11:18.293Z,20.8
2019-02-18T10:12:19.613Z,20.7
2019-02-18T10:13:01.425Z,20.8
2019-02-18T10:13:47.916Z,20.7
2019-02-18T10:14:38.845Z,20.7
2019-02-18T10:15:29.253Z,20.7
2019-02-18T10:16:18.983Z,20.7
2019-02-18T10:17:09.262Z,20.7
2019-02-18T10:17:59.057Z,20.7
2019-02-18T10:18:48.522Z,20.7
2019-02-18T10:19:38.379Z,20.7
2019-02-18T10:20:29.487Z,20.7
2019-02-18T10:21:19.406Z,20.7
2019-02-18T10:22:09.057Z,20.6
2019-02-18T10:22:59.187Z,20.7
2019-02-18T10:23:49.712Z,20.6
2019-02-18T10:24:51.729Z,20.6
2019-02-18T10:25:29.862Z,20.6
2019-02-18T10:26:19.359Z,20.6
2019-02-18T10:27:09.047Z,20.6
2019-02-18T10:27:59.959Z,20.6
2019-02-18T10:28:50.056Z,20.6
2019-02-18T10:29:39.806Z,20.6
2019-02-18T10:30:29.934Z,20.6
2019-02-18T10:31:19.412Z,20.6
2019-02-18T10:32:10.011Z,20.6
2019-02-18T10:32:59.523Z,20.6
2019-02-18T10:33:48.211Z,20.6
2019-02-18T10:34:38.849Z,20.6
2019-02-18T10:35:32.489Z,20.6
2019-02-18T10:36:19.997Z,20.6
2019-02-18T10:37:10.622Z,20.6
2019-02-18T10:38:03.318Z,20.6
2019-02-18T10:38:50.226Z,20.6
2019-02-18T10:39:40.307Z,20.6
2019-02-18T10:40:29.776Z,20.5
2019-02-18T10:41:22.861Z,20.5
2019-02-18T10:42:09.326Z,20.6
2019-02-18T10:43:00.851Z,20.5
2019-02-18T10:43:50.821Z,20.5
2019-02-18T10:44:40.704Z,20.5
2019-02-18T10:45:31.637Z,20.5
2019-02-18T10:46:21.063Z,20.5
2019-02-18T10:47:12.281Z,20.5
2019-02-18T10:48:01.498Z,20.5
2019-02-18T10:48:51.250Z,20.5
2019-02-18T10:49:41.012Z,20.5
2019-02-18T10:50:33.568Z,20.5
2019-02-18T10:51:21.283Z,20.5
2019-02-18T10:52:11.670Z,20.5
2019-02-18T10:53:01.848Z,20.4
2019-02-18T10:53:52.076Z,20.4
2019-02-18T10:54:41.527Z,20.4
2019-02-18T10:55:32.762Z,20.4
2019-02-18T10:56:24.135Z,20.4
2019-02-18T10:57:12.083Z,20.4
2019-02-18T10:58:01.384Z,20.4
2019-02-18T10:58:51.094Z,20.4
2019-02-18T10:59:42.595Z,20.4
2019-02-18T11:00:31.777Z,20.4
2019-02-18T11:01:21.552Z,20.4
2019-02-18T11:02:12.290Z,20.4
2019-02-18T11:03:01.634Z,20.4
2019-02-18T11:03:52.380Z,20.4
2019-02-18T11:04:41.522Z,20.4
2019-02-18T11:05:34.827Z,20.4
2019-02-18T11:06:22.229Z,20.4
2019-02-18T11:07:11.670Z,20.4
2019-02-18T11:08:02.084Z,20.4
2019-02-18T11:08:52.571Z,20.4
2019-02-18T11:09:42.607Z,20.4
2019-02-18T11:10:32.422Z,20.4
2019-02-18T11:11:24.711Z,20.4
2019-02-18T11:12:12.371Z,20.4
2019-02-18T11:13:05.232Z,20.4
2019-02-18T11:13:52.871Z,20.4
2019-02-18T11:14:41.954Z,20.4
2019-02-18T11:15:32.291Z,20.4
2019-02-18T11:16:24.211Z,20.4
2019-02-18T11:17:13.510Z,20.4
2019-02-18T11:18:03.813Z,20.4
2019-02-18T11:18:52.273Z,20.3
2019-02-18T11:19:42.918Z,20.3
2019-02-18T11:20:32.894Z,20.3
2019-02-18T11:21:23.800Z,20.3
2019-02-18T11:22:15.323Z,20.3
2019-02-18T11:23:02.824Z,20.3
2019-02-18T11:23:54.271Z,20.3
2019-02-18T11:24:43.258Z,20.3
2019-02-18T11:25:35.688Z,20.3
2019-02-18T11:26:23.288Z,20.3